Mason Valley Wildlife Refuge, Nevada Weather observations

Data are for 10 minute period ending at time listed.
 Day   Time   Solar   Ave.   Ave.  Ave.  Vector  Max.   Baro.   Total    
  of    of     Rad.   Air    Rel.  Wind   Wind   Wind  Press.  Precip.   
Year   Day            Temp.  Hum.  Speed  Dir.   Gust                    
2014   (PST)  Kw/m2    F      %     mph   deg.    mph    mb.     in.     
-------------------------------------------------------------------------
 211    1:50   0.00   60.8    60    1.9   178     2.4   872.5    0.00 
 211    2:00   0.00   60.1    62    1.8   174     2.4   872.4    0.00 
 211    2:10   0.00   60.0    60    0.4   241     2.6   872.4    0.00 
 211    2:20   0.00   60.9    61    2.1   254     4.8   872.4    0.00 
 211    2:30   0.00   59.2    67    1.3   175     2.6   872.4    0.00 
 211    2:40   0.00   57.6    67    2.8   131     6.0   872.5    0.00 
 211    2:50   0.00   56.9    65    1.6   121     3.1   872.7    0.00 
 211    3:00   0.00   57.2    64    0.6   146     1.8   872.7    0.00 
 211    3:10   0.00   57.6    62    1.4   163     2.6   872.7    0.00 
 211    3:20   0.00   57.5    63    1.1   294     2.7   872.6    0.00 
 211    3:30   0.00   56.2    69    2.5   329     3.3   872.5    0.00 
 211    3:40   0.00   56.3    72    2.3   345     4.0   872.6    0.00 
 211    3:50   0.00   56.5    71    1.3    66     3.7   872.6    0.00 
 211    4:00   0.00   56.2    68    1.7   163     4.5   872.7    0.00 
 211    4:10   0.00   53.9    73    2.7   191     4.0   872.8    0.00 
 211    4:20   0.00   56.1    69    1.8   258     2.8   872.8    0.00 
 211    4:30   0.00   56.1    71    2.3   209     3.6   872.9    0.00 
 211    4:40   0.00   56.2    71    1.0   219     3.0   872.9    0.00 
 211    4:50   0.00   55.0    76    3.2   197     5.3   873.0    0.00 
 211    5:00   0.01   55.2    73    2.3   176     4.2   873.1    0.00 
 211    5:10   0.01   55.6    72    0.6   292     2.4   873.3    0.00 
 211    5:20   0.02   56.1    73    0.5   189     1.9   873.3    0.00 
 211    5:30   0.03   55.9    72    1.4    30     3.7   873.3    0.00 
 211    5:40   0.06   55.2    77    1.4    30     2.8   873.3    0.00 
 211    5:50   0.08   57.1    73    0.7   150     2.0   873.4    0.00 
 211    6:00   0.10   58.1    70    2.3   140     3.1   873.5    0.00 
 211    6:10   0.12   60.4    64    1.4   175     3.0   873.5    0.00 
 211    6:20   0.14   62.7    62    1.1   173     1.8   873.5    0.00 
 211    6:30   0.18   65.6    59    0.5   144     2.0   873.5    0.00 
 211    6:40   0.21   68.3    55    0.1   308     0.9   873.5    0.00 
 211    6:50   0.24   70.0    50    1.8   236     4.1   873.5    0.00 
 211    7:00   0.28   70.8    48    2.1   275     2.7   873.5    0.00 
 211    7:10   0.31   71.6    45    1.8   312     2.5   873.5    0.00 
 211    7:20   0.34   72.4    40    0.6   350     1.9   873.4    0.00 
 211    7:30   0.37   73.6    39    1.3   329     2.3   873.4    0.00 
 211    7:40   0.41   74.7    40    0.9   303     1.8   873.4    0.00 
 211    7:50   0.44   76.6    36    1.3   188     2.9   873.3    0.00 
 211    8:00   0.47   76.3    36    2.7   188     5.0   873.1    0.00 
 211    8:10   0.51   77.4    33    2.2   161     4.0   873.0    0.00 
 211    8:20   0.54   79.2    31    0.8   160     2.3   873.0    0.00 
 211    8:30   0.58   81.1    29    1.2   268     2.6   872.9    0.00 
 211    8:40   0.60   80.9    31    1.1   302     2.3   872.8    0.00 
 211    8:50   0.46   80.2    30    1.5   276     2.6   872.8    0.00 
 211    9:00   0.50   79.8    32    1.0   349     3.1   872.8    0.00 
 211    9:10   0.58   81.0    30    0.8   237     2.6   872.8    0.00 
 211    9:20   0.53   80.9    31    1.9   203     4.2   872.8    0.00 
 211    9:30   0.59   81.4    30    1.6   198     4.0   872.9    0.00 
 211    9:40   0.63   81.9    29    1.9   249     4.4   872.9    0.00 
 211    9:50   0.59   82.1    31    2.9   187     5.8   872.8    0.00 
 211   10:00   0.70   82.5    31    3.0   262     5.3   872.8    0.00 
 211   10:10   0.49   82.7    30    3.0   269     6.3   872.9    0.00 
 211   10:20   0.48   81.9    31    2.7   262     4.7   872.8    0.00 
 211   10:30   0.48   82.8    29    2.1   268     3.7   872.8    0.00 
 211   10:40   0.70   83.9    26    1.3   217     3.1   872.8    0.00 
 211   10:50   0.84   84.7    26    2.1   214     4.7   872.7    0.00 
 211   11:00   0.60   84.7    28    1.4   220     3.7   872.7    0.00 
 211   11:10   0.60   84.6    26    1.4   319     2.9   872.7    0.00 
 211   11:20   0.77   85.4    26    1.9   275     3.9   872.6    0.00 
 211   11:30   0.62   84.9    26    2.6   233     5.6   872.6    0.00 
 211   11:40   0.72   85.6    26    3.0   310     5.2   872.5    0.00 
 211   11:50   0.50   84.8    28    2.9   241     5.8   872.4    0.00 
 211   12:00   0.52   85.2    27    1.6   275     2.7   872.4    0.00 
 211   12:10   0.56   85.9    26    2.4   222     4.9   872.3    0.00 
 211   12:20   0.67   86.0    26    3.1   252     6.1   872.2    0.00 
 211   12:30   0.72   85.7    28    2.9   235     5.2   872.1    0.00 
 211   12:40   0.73   87.0    24    2.5   202     4.7   872.0    0.00 
 211   12:50   0.56   86.8    25    3.3   218     9.9   871.9    0.00 
 211   13:00   0.45   85.4    26    3.7   247     7.1   871.9    0.00 
 211   13:10   0.48   85.8    26    3.8   224     7.7   871.9    0.00 
 211   13:20   0.47   85.9    25    3.2   255     5.8   871.8    0.00 
 211   13:30   0.46   86.3    24    2.7   261     4.7   871.8    0.00 
 211   13:40   0.89   88.1    25    2.8   285     6.1   871.8    0.00 
 211   13:50   0.56   87.5    22    5.1   269     8.7   871.8    0.00 
 211   14:00   0.63   87.5    23    4.0   288     9.1   871.7    0.00 
 211   14:10   0.54   87.8    23    3.5   278     7.0   871.6    0.00 
 211   14:20   0.44   87.2    23    3.8   276     6.5   871.4    0.00 
 211   14:30   0.58   87.2    21    3.9   291     6.8   871.3    0.00 
 211   14:40   0.75   88.2    20    5.0   300     9.1   871.3    0.00 
 211   14:50   0.64   88.2    20    5.1   309     7.7   871.3    0.00 
 211   15:00   0.37   87.0    20    4.5   302     7.0   871.4    0.00 
 211   15:10   0.31   86.6    22    3.9   302     7.7   871.4    0.00 
 211   15:20   0.28   86.0    22    5.3   316     8.1   871.3    0.00 
 211   15:30   0.25   85.1    23    8.2   319    19.9   871.3    0.00 
 211   15:40   0.21   82.7    28    7.4   303    16.6   871.4    0.00 
 211   15:50   0.19   81.2    30    5.7   298    11.5   871.5    0.00 
 211   16:00   0.16   80.4    31    6.3   293    11.1   871.4    0.00 
 211   16:10   0.13   79.8    33    4.8   298    10.5   871.3    0.00 
 211   16:20   0.11   79.8    32    5.9   298    13.1   871.4    0.00 
 211   16:30   0.11   81.0    27   10.6   316    23.8   871.4    0.00 
 211   16:40   0.10   81.0    27   11.0   312    18.5   871.4    0.00 
 211   16:50   0.09   80.7    27    9.2   322    17.2   871.4    0.00 
 211   17:00   0.08   80.7    27    9.1   323    15.3   871.3    0.00 
 211   17:10   0.07   80.6    27    8.7   333    15.3   871.3    0.00 
 211   17:20   0.06   80.8    27    7.8   320    12.2   871.4    0.00 
 211   17:30   0.06   80.6    28    6.7   311    13.4   871.5    0.00 
 211   17:40   0.05   80.3    29    7.8   316    13.7   871.6    0.00 
 211   17:50   0.04   79.9    29    7.3   322    12.6   871.7    0.00 
 211   18:00   0.04   79.6    30    5.9   314    11.0   871.8    0.00 
 211   18:10   0.03   78.1    33    5.4   277     8.8   871.8    0.00 
 211   18:20   0.03   77.1    33    4.4   284     7.2   871.7    0.00 
 211   18:30   0.02   76.5    34    3.9   286     7.2   871.6    0.00 
 211   18:40   0.02   76.6    34    3.9   263     7.2   871.6    0.00 
 211   18:50   0.01   75.5    37    2.5   246     4.2   871.6    0.00 
 211   19:00   0.01   75.6    36    2.8   220     4.2   871.7    0.00 
 211   19:10   0.02   73.8    43    4.6   198     5.6   871.6    0.00 
 211   19:20   0.01   73.5    41    5.6   211     7.8   871.6    0.00 
 211   19:30   0.00   75.6    34    5.2   212     8.9   871.7    0.00 
 211   19:40   0.00   75.1    38    7.3   168    11.7   871.9    0.00 
 211   19:50   0.00   73.7    45    8.6   176    11.9   872.2    0.00 
 211   20:00   0.00   73.1    45    8.0   188    11.3   872.3    0.00 
 211   20:10   0.00   73.2    43    6.4   200    10.9   872.3    0.00 
 211   20:20   0.00   73.5    41    4.5   173     7.2   872.5    0.00 
 211   20:30   0.00   73.2    42    1.6    72     3.7   872.6    0.00 
 211   20:40   0.00   72.2    47    3.0    17     5.6   872.9    0.00 
 211   20:50   0.00   70.7    51    3.1    34     6.1   873.0    0.00 
 211   21:00   0.00   70.4    51    1.2   274     2.1   872.9    0.00 
 211   21:10   0.00   70.6    50    1.3    19     3.1   873.0    0.00 
 211   21:20   0.00   72.5    44    2.9    18     3.9   873.0    0.00 
 211   21:30   0.00   71.3    48    1.1   264     2.8   873.0    0.00 
 211   21:40   0.00   69.4    57    2.5   230     4.5   873.0    0.00 
 211   21:50   0.00   68.6    54    3.2   270     7.4   873.0    0.00 
 211   22:00   0.00   68.3    55    3.7   262     4.7   872.9    0.00 
 211   22:10   0.00   69.0    52    3.7   290     4.7   872.9    0.00 
 211   22:20   0.00   69.4    49    2.6   278     4.1   872.7    0.00 
 211   22:30   0.00   68.0    55    3.0   268     4.2   872.6    0.00 
 211   22:40   0.00   68.2    53    2.8   327     4.4   872.6    0.00 
 211   22:50   0.00   68.2    55    3.4   268     5.5   872.6    0.00 
 211   23:00   0.00   67.0    58    3.5   274     4.7   872.6    0.00 
 211   23:10   0.00   66.5    56    2.0   286     3.7   872.5    0.00 
 211   23:20   0.00   67.7    53    1.7   208     2.9   872.6    0.00 
 211   23:30   0.00   66.6    59    1.6   141     3.5   872.5    0.00 
 211   23:40   0.00   66.6    58    2.0   234     3.2   872.4    0.00 
 211   23:50   0.00   65.3    64    1.2   124     3.9   872.5    0.00 
 212    0:00   0.00   65.0    61    2.2   139     5.3   872.6    0.00 
 212    0:10   0.00   65.3    63    1.5   184     2.6   872.6    0.00 
 212    0:20   0.00   64.1    67    0.9    30     2.5   872.6    0.00 
 212    0:30   0.00   64.0    67    1.0   118     1.8   872.7    0.00 
 212    0:40   0.00   64.4    67    1.8   178     3.5   872.8    0.00 
 212    0:50   0.00   64.7    64    1.3   211     2.1   872.8    0.00 
 212    1:00   0.00   66.8    57    2.9   225     4.5   872.6    0.00 
 212    1:10   0.00   66.3    63    0.8   230     2.7   872.6    0.00 
 212    1:20   0.00   64.8    67    1.6   199     3.9   872.6    0.00 
 212    1:30   0.00   64.4    69    4.1   273     5.9   872.5    0.00 
 212    1:40   0.00   65.4    63    3.2   267     4.8   872.5    0.00 

Return to Mason Valley Wildlife Refuge graphs page.


Western Regional Climate Center,wrcc@dri.edu